sensor_id;sensor_type;location;lat;lon;timestamp;P1;durP1;ratioP1;P2;durP2;ratioP2
8584;SDS011;7180;52.742;11.420;2023-02-11T00:02:16;37.37;;;27.70;;
8584;SDS011;7180;52.742;11.420;2023-02-11T00:04:42;39.47;;;28.07;;
8584;SDS011;7180;52.742;11.420;2023-02-11T00:07:07;36.70;;;28.53;;
8584;SDS011;7180;52.742;11.420;2023-02-11T00:09:32;36.17;;;27.43;;
8584;SDS011;7180;52.742;11.420;2023-02-11T00:11:57;34.87;;;27.70;;
8584;SDS011;7180;52.742;11.420;2023-02-11T00:14:23;35.07;;;27.60;;
8584;SDS011;7180;52.742;11.420;2023-02-11T00:16:48;38.13;;;28.60;;
8584;SDS011;7180;52.742;11.420;2023-02-11T00:19:13;34.97;;;27.87;;
8584;SDS011;7180;52.742;11.420;2023-02-11T00:21:38;38.70;;;29.37;;
8584;SDS011;7180;52.742;11.420;2023-02-11T00:24:04;36.57;;;28.27;;
8584;SDS011;7180;52.742;11.420;2023-02-11T00:26:31;42.23;;;30.57;;
8584;SDS011;7180;52.742;11.420;2023-02-11T00:28:58;37.00;;;28.17;;
8584;SDS011;7180;52.742;11.420;2023-02-11T00:31:25;39.37;;;29.43;;
8584;SDS011;7180;52.742;11.420;2023-02-11T00:33:50;39.73;;;29.87;;
8584;SDS011;7180;52.742;11.420;2023-02-11T00:36:17;39.50;;;29.97;;
8584;SDS011;7180;52.742;11.420;2023-02-11T00:38:45;35.97;;;29.20;;
8584;SDS011;7180;52.742;11.420;2023-02-11T00:41:11;38.77;;;29.53;;
8584;SDS011;7180;52.742;11.420;2023-02-11T00:43:38;36.80;;;28.83;;
8584;SDS011;7180;52.742;11.420;2023-02-11T00:46:04;37.03;;;29.30;;
8584;SDS011;7180;52.742;11.420;2023-02-11T00:48:31;37.47;;;28.73;;
8584;SDS011;7180;52.742;11.420;2023-02-11T00:50:57;38.17;;;29.70;;
8584;SDS011;7180;52.742;11.420;2023-02-11T00:53:22;41.27;;;29.70;;
8584;SDS011;7180;52.742;11.420;2023-02-11T00:55:47;40.07;;;29.23;;
8584;SDS011;7180;52.742;11.420;2023-02-11T00:58:13;38.97;;;29.80;;
8584;SDS011;7180;52.742;11.420;2023-02-11T01:00:38;38.17;;;29.30;;
8584;SDS011;7180;52.742;11.420;2023-02-11T01:03:04;36.80;;;28.93;;
8584;SDS011;7180;52.742;11.420;2023-02-11T01:05:29;38.90;;;29.57;;
8584;SDS011;7180;52.742;11.420;2023-02-11T01:07:54;38.13;;;30.00;;
8584;SDS011;7180;52.742;11.420;2023-02-11T01:10:20;41.90;;;30.47;;
8584;SDS011;7180;52.742;11.420;2023-02-11T01:12:45;38.33;;;29.30;;
8584;SDS011;7180;52.742;11.420;2023-02-11T01:15:12;39.77;;;30.03;;
8584;SDS011;7180;52.742;11.420;2023-02-11T01:17:39;40.60;;;31.40;;
8584;SDS011;7180;52.742;11.420;2023-02-11T01:20:05;39.70;;;30.03;;
8584;SDS011;7180;52.742;11.420;2023-02-11T01:22:33;39.53;;;30.27;;
8584;SDS011;7180;52.742;11.420;2023-02-11T01:25:01;40.67;;;31.10;;
8584;SDS011;7180;52.742;11.420;2023-02-11T01:27:26;39.13;;;30.67;;
8584;SDS011;7180;52.742;11.420;2023-02-11T01:29:52;39.23;;;30.17;;
8584;SDS011;7180;52.742;11.420;2023-02-11T01:32:17;43.27;;;31.20;;
8584;SDS011;7180;52.742;11.420;2023-02-11T01:34:42;39.47;;;30.53;;
8584;SDS011;7180;52.742;11.420;2023-02-11T01:37:07;42.00;;;31.17;;
8584;SDS011;7180;52.742;11.420;2023-02-11T01:39:33;43.93;;;31.73;;
8584;SDS011;7180;52.742;11.420;2023-02-11T01:41:58;40.57;;;30.53;;
8584;SDS011;7180;52.742;11.420;2023-02-11T01:44:37;41.63;;;32.27;;
8584;SDS011;7180;52.742;11.420;2023-02-11T01:47:04;38.87;;;30.30;;
8584;SDS011;7180;52.742;11.420;2023-02-11T01:49:32;42.10;;;30.80;;
8584;SDS011;7180;52.742;11.420;2023-02-11T01:52:01;38.57;;;31.13;;
8584;SDS011;7180;52.742;11.420;2023-02-11T01:54:31;40.80;;;30.73;;
8584;SDS011;7180;52.742;11.420;2023-02-11T01:57:19;41.00;;;31.07;;
8584;SDS011;7180;52.742;11.420;2023-02-11T02:05:21;40.73;;;31.63;;
8584;SDS011;7180;52.742;11.420;2023-02-11T02:10:41;41.67;;;32.47;;
8584;SDS011;7180;52.742;11.420;2023-02-11T02:13:09;41.53;;;31.73;;
8584;SDS011;7180;52.742;11.420;2023-02-11T02:15:35;40.30;;;32.53;;
8584;SDS011;7180;52.742;11.420;2023-02-11T02:21:21;40.57;;;31.40;;
8584;SDS011;7180;52.742;11.420;2023-02-11T02:29:53;42.50;;;32.33;;
8584;SDS011;7180;52.742;11.420;2023-02-11T02:37:46;43.60;;;32.00;;
8584;SDS011;7180;52.742;11.420;2023-02-11T02:40:23;43.97;;;31.77;;
8584;SDS011;7180;52.742;11.420;2023-02-11T02:42:53;43.03;;;33.10;;
8584;SDS011;7180;52.742;11.420;2023-02-11T02:45:20;42.73;;;32.50;;
8584;SDS011;7180;52.742;11.420;2023-02-11T02:47:45;44.87;;;33.67;;
8584;SDS011;7180;52.742;11.420;2023-02-11T02:50:10;45.00;;;33.10;;
8584;SDS011;7180;52.742;11.420;2023-02-11T02:53:00;44.87;;;33.43;;
8584;SDS011;7180;52.742;11.420;2023-02-11T02:58:37;43.03;;;32.60;;
8584;SDS011;7180;52.742;11.420;2023-02-11T03:06:52;45.57;;;33.63;;
8584;SDS011;7180;52.742;11.420;2023-02-11T03:09:31;43.63;;;33.40;;
8584;SDS011;7180;52.742;11.420;2023-02-11T03:12:01;45.57;;;33.20;;
8584;SDS011;7180;52.742;11.420;2023-02-11T03:14:28;48.17;;;33.47;;
8584;SDS011;7180;52.742;11.420;2023-02-11T03:16:56;40.77;;;32.90;;
8584;SDS011;7180;52.742;11.420;2023-02-11T03:19:28;45.43;;;34.03;;
8584;SDS011;7180;52.742;11.420;2023-02-11T03:21:57;43.70;;;34.37;;
8584;SDS011;7180;52.742;11.420;2023-02-11T03:24:24;45.60;;;32.80;;
8584;SDS011;7180;52.742;11.420;2023-02-11T03:26:55;46.40;;;34.13;;
8584;SDS011;7180;52.742;11.420;2023-02-11T03:32:13;45.77;;;33.83;;
8584;SDS011;7180;52.742;11.420;2023-02-11T03:34:46;48.03;;;35.07;;
8584;SDS011;7180;52.742;11.420;2023-02-11T03:37:19;46.57;;;34.33;;
8584;SDS011;7180;52.742;11.420;2023-02-11T03:40:17;46.17;;;33.57;;
8584;SDS011;7180;52.742;11.420;2023-02-11T03:42:51;49.17;;;34.40;;
8584;SDS011;7180;52.742;11.420;2023-02-11T03:45:25;51.50;;;34.33;;
8584;SDS011;7180;52.742;11.420;2023-02-11T03:47:53;48.83;;;35.20;;
8584;SDS011;7180;52.742;11.420;2023-02-11T03:50:26;49.50;;;34.67;;
8584;SDS011;7180;52.742;11.420;2023-02-11T03:52:55;50.93;;;36.07;;
8584;SDS011;7180;52.742;11.420;2023-02-11T03:55:22;50.47;;;34.47;;
8584;SDS011;7180;52.742;11.420;2023-02-11T03:57:50;54.50;;;34.07;;
8584;SDS011;7180;52.742;11.420;2023-02-11T04:00:16;52.53;;;35.43;;
8584;SDS011;7180;52.742;11.420;2023-02-11T04:02:42;49.27;;;35.47;;
8584;SDS011;7180;52.742;11.420;2023-02-11T04:05:08;50.63;;;34.13;;
8584;SDS011;7180;52.742;11.420;2023-02-11T04:07:35;50.40;;;34.23;;
8584;SDS011;7180;52.742;11.420;2023-02-11T04:10:00;46.97;;;34.03;;
8584;SDS011;7180;52.742;11.420;2023-02-11T04:12:26;48.87;;;35.00;;
8584;SDS011;7180;52.742;11.420;2023-02-11T04:14:51;47.73;;;34.43;;
8584;SDS011;7180;52.742;11.420;2023-02-11T04:17:16;43.70;;;34.20;;
8584;SDS011;7180;52.742;11.420;2023-02-11T04:19:42;50.00;;;34.00;;
8584;SDS011;7180;52.742;11.420;2023-02-11T04:22:07;48.50;;;35.17;;
8584;SDS011;7180;52.742;11.420;2023-02-11T04:24:33;51.67;;;35.53;;
8584;SDS011;7180;52.742;11.420;2023-02-11T04:26:58;53.13;;;35.47;;
8584;SDS011;7180;52.742;11.420;2023-02-11T04:29:23;44.93;;;33.67;;
8584;SDS011;7180;52.742;11.420;2023-02-11T04:31:50;46.57;;;33.87;;
8584;SDS011;7180;52.742;11.420;2023-02-11T04:34:15;48.27;;;32.83;;
8584;SDS011;7180;52.742;11.420;2023-02-11T04:36:40;46.03;;;31.97;;
8584;SDS011;7180;52.742;11.420;2023-02-11T04:39:06;45.10;;;33.43;;
8584;SDS011;7180;52.742;11.420;2023-02-11T04:41:32;48.83;;;33.43;;
8584;SDS011;7180;52.742;11.420;2023-02-11T04:43:57;47.33;;;33.20;;
8584;SDS011;7180;52.742;11.420;2023-02-11T04:46:22;46.27;;;32.50;;
8584;SDS011;7180;52.742;11.420;2023-02-11T04:48:48;50.20;;;33.53;;
8584;SDS011;7180;52.742;11.420;2023-02-11T04:51:14;47.00;;;32.80;;
8584;SDS011;7180;52.742;11.420;2023-02-11T04:53:39;47.33;;;32.93;;
8584;SDS011;7180;52.742;11.420;2023-02-11T04:56:05;49.63;;;33.67;;
8584;SDS011;7180;52.742;11.420;2023-02-11T04:58:30;51.80;;;33.67;;
8584;SDS011;7180;52.742;11.420;2023-02-11T05:01:03;48.50;;;33.63;;
8584;SDS011;7180;52.742;11.420;2023-02-11T05:03:29;46.97;;;32.90;;
8584;SDS011;7180;52.742;11.420;2023-02-11T05:05:54;50.53;;;33.87;;
8584;SDS011;7180;52.742;11.420;2023-02-11T05:08:20;48.07;;;33.83;;
8584;SDS011;7180;52.742;11.420;2023-02-11T05:10:45;46.93;;;33.17;;
8584;SDS011;7180;52.742;11.420;2023-02-11T05:13:11;47.17;;;32.70;;
8584;SDS011;7180;52.742;11.420;2023-02-11T05:15:37;45.47;;;32.93;;
8584;SDS011;7180;52.742;11.420;2023-02-11T05:18:02;51.97;;;34.00;;
8584;SDS011;7180;52.742;11.420;2023-02-11T05:20:27;46.87;;;32.93;;
8584;SDS011;7180;52.742;11.420;2023-02-11T05:22:53;49.73;;;33.80;;
8584;SDS011;7180;52.742;11.420;2023-02-11T05:25:18;47.30;;;33.73;;
8584;SDS011;7180;52.742;11.420;2023-02-11T05:27:44;46.50;;;33.40;;
8584;SDS011;7180;52.742;11.420;2023-02-11T05:30:09;48.50;;;34.03;;
8584;SDS011;7180;52.742;11.420;2023-02-11T05:32:35;49.03;;;33.77;;
8584;SDS011;7180;52.742;11.420;2023-02-11T05:35:00;46.70;;;33.90;;
8584;SDS011;7180;52.742;11.420;2023-02-11T05:37:25;54.13;;;35.43;;
8584;SDS011;7180;52.742;11.420;2023-02-11T05:39:51;48.63;;;34.17;;
8584;SDS011;7180;52.742;11.420;2023-02-11T05:42:16;46.60;;;35.67;;
8584;SDS011;7180;52.742;11.420;2023-02-11T05:44:41;52.40;;;35.30;;
8584;SDS011;7180;52.742;11.420;2023-02-11T05:47:07;49.23;;;34.03;;
8584;SDS011;7180;52.742;11.420;2023-02-11T05:49:34;52.37;;;34.33;;
8584;SDS011;7180;52.742;11.420;2023-02-11T05:52:00;47.30;;;33.80;;
8584;SDS011;7180;52.742;11.420;2023-02-11T05:54:25;47.60;;;34.80;;
8584;SDS011;7180;52.742;11.420;2023-02-11T05:56:50;53.13;;;35.20;;
8584;SDS011;7180;52.742;11.420;2023-02-11T05:59:15;50.27;;;34.13;;
8584;SDS011;7180;52.742;11.420;2023-02-11T06:01:41;47.10;;;34.43;;
8584;SDS011;7180;52.742;11.420;2023-02-11T06:04:06;49.13;;;35.43;;
8584;SDS011;7180;52.742;11.420;2023-02-11T06:06:31;50.43;;;35.53;;
8584;SDS011;7180;52.742;11.420;2023-02-11T06:08:57;50.50;;;35.27;;
8584;SDS011;7180;52.742;11.420;2023-02-11T06:11:22;47.13;;;33.13;;
8584;SDS011;7180;52.742;11.420;2023-02-11T06:13:47;49.87;;;36.00;;
8584;SDS011;7180;52.742;11.420;2023-02-11T06:16:13;49.43;;;33.83;;
8584;SDS011;7180;52.742;11.420;2023-02-11T06:18:38;50.17;;;34.67;;
8584;SDS011;7180;52.742;11.420;2023-02-11T06:21:06;48.83;;;33.23;;
8584;SDS011;7180;52.742;11.420;2023-02-11T06:23:33;51.50;;;34.20;;
8584;SDS011;7180;52.742;11.420;2023-02-11T06:26:05;48.23;;;33.83;;
8584;SDS011;7180;52.742;11.420;2023-02-11T06:28:31;46.87;;;33.90;;
8584;SDS011;7180;52.742;11.420;2023-02-11T06:30:58;46.30;;;32.70;;
8584;SDS011;7180;52.742;11.420;2023-02-11T06:33:28;48.83;;;33.80;;
8584;SDS011;7180;52.742;11.420;2023-02-11T06:35:53;49.50;;;34.40;;
8584;SDS011;7180;52.742;11.420;2023-02-11T06:38:18;49.40;;;34.23;;
8584;SDS011;7180;52.742;11.420;2023-02-11T06:40:47;46.20;;;32.50;;
8584;SDS011;7180;52.742;11.420;2023-02-11T06:43:13;47.07;;;32.90;;
8584;SDS011;7180;52.742;11.420;2023-02-11T06:45:39;49.87;;;33.87;;
8584;SDS011;7180;52.742;11.420;2023-02-11T06:48:04;51.17;;;33.73;;
8584;SDS011;7180;52.742;11.420;2023-02-11T06:50:29;48.57;;;32.87;;
8584;SDS011;7180;52.742;11.420;2023-02-11T06:52:55;47.53;;;32.87;;
8584;SDS011;7180;52.742;11.420;2023-02-11T06:55:20;48.67;;;32.53;;
8584;SDS011;7180;52.742;11.420;2023-02-11T06:57:45;47.80;;;33.97;;
8584;SDS011;7180;52.742;11.420;2023-02-11T07:00:11;46.70;;;32.77;;
8584;SDS011;7180;52.742;11.420;2023-02-11T07:02:36;45.47;;;32.80;;
8584;SDS011;7180;52.742;11.420;2023-02-11T07:05:03;47.93;;;32.73;;
8584;SDS011;7180;52.742;11.420;2023-02-11T07:07:30;50.10;;;33.10;;
8584;SDS011;7180;52.742;11.420;2023-02-11T07:09:56;52.37;;;33.70;;
8584;SDS011;7180;52.742;11.420;2023-02-11T07:12:22;44.27;;;32.93;;
8584;SDS011;7180;52.742;11.420;2023-02-11T07:14:47;45.13;;;32.60;;
8584;SDS011;7180;52.742;11.420;2023-02-11T07:17:12;46.73;;;32.90;;
8584;SDS011;7180;52.742;11.420;2023-02-11T07:19:38;45.43;;;31.87;;
8584;SDS011;7180;52.742;11.420;2023-02-11T07:22:04;49.07;;;33.13;;
8584;SDS011;7180;52.742;11.420;2023-02-11T07:24:29;50.97;;;32.60;;
8584;SDS011;7180;52.742;11.420;2023-02-11T07:26:54;44.33;;;32.43;;
8584;SDS011;7180;52.742;11.420;2023-02-11T07:29:19;44.20;;;31.27;;
8584;SDS011;7180;52.742;11.420;2023-02-11T07:31:45;45.47;;;31.70;;
8584;SDS011;7180;52.742;11.420;2023-02-11T07:34:10;47.03;;;31.17;;
8584;SDS011;7180;52.742;11.420;2023-02-11T07:36:35;44.93;;;31.97;;
8584;SDS011;7180;52.742;11.420;2023-02-11T07:39:00;45.60;;;31.70;;
8584;SDS011;7180;52.742;11.420;2023-02-11T07:41:26;44.93;;;32.07;;
8584;SDS011;7180;52.742;11.420;2023-02-11T07:43:51;41.70;;;31.03;;
8584;SDS011;7180;52.742;11.420;2023-02-11T07:46:18;41.07;;;32.57;;
8584;SDS011;7180;52.742;11.420;2023-02-11T07:48:46;45.17;;;30.07;;
8584;SDS011;7180;52.742;11.420;2023-02-11T07:51:21;41.63;;;31.17;;
8584;SDS011;7180;52.742;11.420;2023-02-11T07:53:54;41.57;;;29.70;;
8584;SDS011;7180;52.742;11.420;2023-02-11T07:56:22;42.10;;;30.70;;
8584;SDS011;7180;52.742;11.420;2023-02-11T07:58:48;39.27;;;30.53;;
8584;SDS011;7180;52.742;11.420;2023-02-11T08:01:15;38.93;;;30.23;;
8584;SDS011;7180;52.742;11.420;2023-02-11T08:03:43;47.80;;;31.37;;
8584;SDS011;7180;52.742;11.420;2023-02-11T08:06:09;41.67;;;29.70;;
8584;SDS011;7180;52.742;11.420;2023-02-11T08:08:39;35.50;;;29.23;;
8584;SDS011;7180;52.742;11.420;2023-02-11T08:11:12;42.00;;;30.07;;
8584;SDS011;7180;52.742;11.420;2023-02-11T08:13:39;35.60;;;29.17;;
8584;SDS011;7180;52.742;11.420;2023-02-11T08:16:04;37.60;;;28.93;;
8584;SDS011;7180;52.742;11.420;2023-02-11T08:18:31;34.63;;;28.13;;
8584;SDS011;7180;52.742;11.420;2023-02-11T08:21:07;36.23;;;28.23;;
8584;SDS011;7180;52.742;11.420;2023-02-11T08:23:37;37.77;;;28.87;;
8584;SDS011;7180;52.742;11.420;2023-02-11T08:26:05;37.27;;;29.30;;
8584;SDS011;7180;52.742;11.420;2023-02-11T08:28:34;39.67;;;29.30;;
8584;SDS011;7180;52.742;11.420;2023-02-11T08:31:10;35.73;;;28.77;;
8584;SDS011;7180;52.742;11.420;2023-02-11T08:33:41;37.33;;;28.40;;
8584;SDS011;7180;52.742;11.420;2023-02-11T08:36:07;36.03;;;26.67;;
8584;SDS011;7180;52.742;11.420;2023-02-11T08:38:34;31.23;;;26.10;;
8584;SDS011;7180;52.742;11.420;2023-02-11T08:41:00;33.43;;;26.70;;
8584;SDS011;7180;52.742;11.420;2023-02-11T08:43:25;34.73;;;25.90;;
8584;SDS011;7180;52.742;11.420;2023-02-11T08:45:50;33.37;;;26.30;;
8584;SDS011;7180;52.742;11.420;2023-02-11T08:48:16;36.50;;;26.93;;
8584;SDS011;7180;52.742;11.420;2023-02-11T08:50:41;32.87;;;26.00;;
8584;SDS011;7180;52.742;11.420;2023-02-11T08:53:06;36.27;;;26.10;;
8584;SDS011;7180;52.742;11.420;2023-02-11T08:55:31;35.63;;;26.87;;
8584;SDS011;7180;52.742;11.420;2023-02-11T08:57:57;34.43;;;26.30;;
8584;SDS011;7180;52.742;11.420;2023-02-11T09:00:22;35.23;;;26.77;;
8584;SDS011;7180;52.742;11.420;2023-02-11T09:02:47;34.50;;;25.63;;
8584;SDS011;7180;52.742;11.420;2023-02-11T09:05:13;270.50;;;107.23;;
8584;SDS011;7180;52.742;11.420;2023-02-11T09:07:38;72.60;;;41.03;;
8584;SDS011;7180;52.742;11.420;2023-02-11T09:10:03;37.07;;;27.60;;
8584;SDS011;7180;52.742;11.420;2023-02-11T09:12:30;35.40;;;27.33;;
8584;SDS011;7180;52.742;11.420;2023-02-11T09:14:55;31.97;;;26.77;;
8584;SDS011;7180;52.742;11.420;2023-02-11T09:17:21;32.23;;;27.90;;
8584;SDS011;7180;52.742;11.420;2023-02-11T09:19:46;41.20;;;31.43;;
8584;SDS011;7180;52.742;11.420;2023-02-11T09:22:11;39.23;;;30.83;;
8584;SDS011;7180;52.742;11.420;2023-02-11T09:24:36;75.90;;;46.47;;
8584;SDS011;7180;52.742;11.420;2023-02-11T09:27:02;37.97;;;29.67;;
8584;SDS011;7180;52.742;11.420;2023-02-11T09:29:27;38.17;;;28.67;;
8584;SDS011;7180;52.742;11.420;2023-02-11T09:31:52;36.33;;;28.47;;
8584;SDS011;7180;52.742;11.420;2023-02-11T09:34:17;37.87;;;29.23;;
8584;SDS011;7180;52.742;11.420;2023-02-11T09:36:43;32.63;;;25.00;;
8584;SDS011;7180;52.742;11.420;2023-02-11T09:39:10;30.17;;;26.17;;
8584;SDS011;7180;52.742;11.420;2023-02-11T09:41:48;31.03;;;26.00;;
8584;SDS011;7180;52.742;11.420;2023-02-11T09:44:24;38.27;;;28.23;;
8584;SDS011;7180;52.742;11.420;2023-02-11T09:46:53;31.03;;;26.60;;
8584;SDS011;7180;52.742;11.420;2023-02-11T09:49:24;31.80;;;27.63;;
8584;SDS011;7180;52.742;11.420;2023-02-11T09:52:01;40.37;;;32.77;;
8584;SDS011;7180;52.742;11.420;2023-02-11T09:54:35;32.30;;;27.13;;
8584;SDS011;7180;52.742;11.420;2023-02-11T09:57:09;31.33;;;26.00;;
8584;SDS011;7180;52.742;11.420;2023-02-11T09:59:34;28.57;;;25.53;;
8584;SDS011;7180;52.742;11.420;2023-02-11T10:02:05;30.33;;;26.43;;
8584;SDS011;7180;52.742;11.420;2023-02-11T10:12:31;41.70;;;32.90;;
8584;SDS011;7180;52.742;11.420;2023-02-11T10:20:32;38.53;;;30.73;;
8584;SDS011;7180;52.742;11.420;2023-02-11T10:23:04;28.77;;;25.40;;
8584;SDS011;7180;52.742;11.420;2023-02-11T10:25:44;28.60;;;25.50;;
8584;SDS011;7180;52.742;11.420;2023-02-11T10:28:15;29.70;;;26.33;;
8584;SDS011;7180;52.742;11.420;2023-02-11T10:30:48;32.87;;;27.13;;
8584;SDS011;7180;52.742;11.420;2023-02-11T10:35:52;46.53;;;36.07;;
8584;SDS011;7180;52.742;11.420;2023-02-11T10:38:18;29.67;;;26.10;;
8584;SDS011;7180;52.742;11.420;2023-02-11T10:40:43;28.60;;;25.50;;
8584;SDS011;7180;52.742;11.420;2023-02-11T10:43:09;28.43;;;25.47;;
8584;SDS011;7180;52.742;11.420;2023-02-11T10:45:56;30.63;;;25.90;;
8584;SDS011;7180;52.742;11.420;2023-02-11T10:51:17;29.17;;;26.07;;
8584;SDS011;7180;52.742;11.420;2023-02-11T10:53:49;31.43;;;27.63;;
8584;SDS011;7180;52.742;11.420;2023-02-11T10:56:22;34.97;;;29.83;;
8584;SDS011;7180;52.742;11.420;2023-02-11T10:58:57;30.30;;;26.97;;
8584;SDS011;7180;52.742;11.420;2023-02-11T11:06:53;34.67;;;27.77;;
8584;SDS011;7180;52.742;11.420;2023-02-11T11:09:29;56.77;;;34.00;;
8584;SDS011;7180;52.742;11.420;2023-02-11T11:11:55;66.63;;;36.57;;
8584;SDS011;7180;52.742;11.420;2023-02-11T11:14:20;27.57;;;24.23;;
8584;SDS011;7180;52.742;11.420;2023-02-11T11:16:52;31.53;;;25.97;;
8584;SDS011;7180;52.742;11.420;2023-02-11T11:19:20;30.83;;;25.90;;
8584;SDS011;7180;52.742;11.420;2023-02-11T11:21:51;28.67;;;25.53;;
8584;SDS011;7180;52.742;11.420;2023-02-11T11:24:38;26.37;;;23.63;;
8584;SDS011;7180;52.742;11.420;2023-02-11T11:27:14;27.80;;;24.80;;
8584;SDS011;7180;52.742;11.420;2023-02-11T11:29:43;29.60;;;25.63;;
8584;SDS011;7180;52.742;11.420;2023-02-11T11:34:54;26.07;;;23.37;;
8584;SDS011;7180;52.742;11.420;2023-02-11T11:39:58;24.23;;;21.57;;
8584;SDS011;7180;52.742;11.420;2023-02-11T11:42:32;23.83;;;21.40;;
8584;SDS011;7180;52.742;11.420;2023-02-11T11:45:03;25.50;;;22.47;;
8584;SDS011;7180;52.742;11.420;2023-02-11T11:47:52;29.00;;;23.97;;
8584;SDS011;7180;52.742;11.420;2023-02-11T11:50:24;26.30;;;23.50;;
8584;SDS011;7180;52.742;11.420;2023-02-11T11:55:24;32.13;;;25.80;;
8584;SDS011;7180;52.742;11.420;2023-02-11T11:57:53;29.97;;;23.93;;
8584;SDS011;7180;52.742;11.420;2023-02-11T12:00:20;29.43;;;26.27;;
8584;SDS011;7180;52.742;11.420;2023-02-11T12:06:00;33.43;;;28.23;;
8584;SDS011;7180;52.742;11.420;2023-02-11T12:16:38;27.20;;;23.37;;
8584;SDS011;7180;52.742;11.420;2023-02-11T12:19:27;25.43;;;22.67;;
8584;SDS011;7180;52.742;11.420;2023-02-11T12:22:09;25.53;;;22.83;;
8584;SDS011;7180;52.742;11.420;2023-02-11T12:25:11;25.27;;;22.57;;
8584;SDS011;7180;52.742;11.420;2023-02-11T12:39:47;26.47;;;23.67;;
8584;SDS011;7180;52.742;11.420;2023-02-11T12:48:29;24.73;;;22.13;;
8584;SDS011;7180;52.742;11.420;2023-02-11T12:59:30;43.00;;;31.23;;
8584;SDS011;7180;52.742;11.420;2023-02-11T13:01:59;37.83;;;28.80;;
8584;SDS011;7180;52.742;11.420;2023-02-11T13:04:38;28.63;;;25.03;;
8584;SDS011;7180;52.742;11.420;2023-02-11T13:07:13;24.67;;;22.17;;
8584;SDS011;7180;52.742;11.420;2023-02-11T13:10:01;25.20;;;22.60;;
8584;SDS011;7180;52.742;11.420;2023-02-11T13:12:33;24.57;;;22.17;;
8584;SDS011;7180;52.742;11.420;2023-02-11T13:15:19;26.50;;;22.63;;
8584;SDS011;7180;52.742;11.420;2023-02-11T13:17:56;24.37;;;21.97;;
8584;SDS011;7180;52.742;11.420;2023-02-11T13:20:31;24.70;;;22.20;;
8584;SDS011;7180;52.742;11.420;2023-02-11T13:23:28;23.50;;;21.10;;
8584;SDS011;7180;52.742;11.420;2023-02-11T13:26:38;24.53;;;21.93;;
8584;SDS011;7180;52.742;11.420;2023-02-11T13:28:51;25.53;;;22.80;;
8584;SDS011;7180;52.742;11.420;2023-02-11T13:31:33;24.40;;;22.00;;
8584;SDS011;7180;52.742;11.420;2023-02-11T13:33:58;23.13;;;20.83;;
8584;SDS011;7180;52.742;11.420;2023-02-11T13:36:24;23.30;;;20.90;;
8584;SDS011;7180;52.742;11.420;2023-02-11T13:38:53;23.70;;;21.30;;
8584;SDS011;7180;52.742;11.420;2023-02-11T13:41:25;23.00;;;20.80;;
8584;SDS011;7180;52.742;11.420;2023-02-11T13:43:57;23.20;;;20.80;;
8584;SDS011;7180;52.742;11.420;2023-02-11T13:46:25;22.97;;;20.73;;
8584;SDS011;7180;52.742;11.420;2023-02-11T13:48:52;23.70;;;21.40;;
8584;SDS011;7180;52.742;11.420;2023-02-11T13:54:05;22.73;;;20.37;;
8584;SDS011;7180;52.742;11.420;2023-02-11T13:59:02;22.63;;;20.37;;
8584;SDS011;7180;52.742;11.420;2023-02-11T14:02:04;22.37;;;20.43;;
8584;SDS011;7180;52.742;11.420;2023-02-11T14:10:50;22.40;;;20.10;;
8584;SDS011;7180;52.742;11.420;2023-02-11T14:21:18;22.27;;;20.00;;
8584;SDS011;7180;52.742;11.420;2023-02-11T14:23:47;23.43;;;21.17;;
8584;SDS011;7180;52.742;11.420;2023-02-11T14:28:46;23.90;;;21.53;;
8584;SDS011;7180;52.742;11.420;2023-02-11T14:31:29;23.47;;;21.27;;
8584;SDS011;7180;52.742;11.420;2023-02-11T14:34:06;23.17;;;21.10;;
8584;SDS011;7180;52.742;11.420;2023-02-11T14:42:29;22.10;;;20.07;;
8584;SDS011;7180;52.742;11.420;2023-02-11T14:44:55;22.27;;;20.17;;
8584;SDS011;7180;52.742;11.420;2023-02-11T14:53:09;21.93;;;19.70;;
8584;SDS011;7180;52.742;11.420;2023-02-11T14:55:40;21.80;;;19.70;;
8584;SDS011;7180;52.742;11.420;2023-02-11T15:03:36;21.63;;;19.60;;
8584;SDS011;7180;52.742;11.420;2023-02-11T15:06:03;21.10;;;19.10;;
8584;SDS011;7180;52.742;11.420;2023-02-11T15:08:41;21.63;;;19.50;;
8584;SDS011;7180;52.742;11.420;2023-02-11T15:11:10;21.90;;;19.80;;
8584;SDS011;7180;52.742;11.420;2023-02-11T15:13:38;21.07;;;19.13;;
8584;SDS011;7180;52.742;11.420;2023-02-11T15:16:07;21.60;;;19.70;;
8584;SDS011;7180;52.742;11.420;2023-02-11T15:18:38;19.70;;;17.90;;
8584;SDS011;7180;52.742;11.420;2023-02-11T15:21:06;19.87;;;18.17;;
8584;SDS011;7180;52.742;11.420;2023-02-11T15:23:32;20.30;;;18.50;;
8584;SDS011;7180;52.742;11.420;2023-02-11T15:25:57;20.30;;;18.57;;
8584;SDS011;7180;52.742;11.420;2023-02-11T15:28:28;20.60;;;18.70;;
8584;SDS011;7180;52.742;11.420;2023-02-11T15:31:03;19.93;;;18.33;;
8584;SDS011;7180;52.742;11.420;2023-02-11T15:33:30;20.33;;;18.57;;
8584;SDS011;7180;52.742;11.420;2023-02-11T15:35:59;19.73;;;18.13;;
8584;SDS011;7180;52.742;11.420;2023-02-11T15:38:27;19.90;;;18.20;;
8584;SDS011;7180;52.742;11.420;2023-02-11T15:40:55;19.97;;;18.17;;
8584;SDS011;7180;52.742;11.420;2023-02-11T15:43:24;20.07;;;18.27;;
8584;SDS011;7180;52.742;11.420;2023-02-11T15:46:04;19.83;;;18.03;;
8584;SDS011;7180;52.742;11.420;2023-02-11T15:48:34;22.77;;;20.57;;
8584;SDS011;7180;52.742;11.420;2023-02-11T15:51:16;19.90;;;18.10;;
8584;SDS011;7180;52.742;11.420;2023-02-11T15:53:48;19.30;;;17.50;;
8584;SDS011;7180;52.742;11.420;2023-02-11T15:56:24;19.37;;;17.57;;
8584;SDS011;7180;52.742;11.420;2023-02-11T15:58:58;18.90;;;17.20;;
8584;SDS011;7180;52.742;11.420;2023-02-11T16:01:33;18.23;;;16.63;;
8584;SDS011;7180;52.742;11.420;2023-02-11T16:04:01;18.17;;;16.63;;
8584;SDS011;7180;52.742;11.420;2023-02-11T16:07:01;18.57;;;16.87;;
8584;SDS011;7180;52.742;11.420;2023-02-11T16:11:56;19.57;;;17.87;;
8584;SDS011;7180;52.742;11.420;2023-02-11T16:16:52;20.23;;;18.53;;
8584;SDS011;7180;52.742;11.420;2023-02-11T16:19:21;20.73;;;18.93;;
8584;SDS011;7180;52.742;11.420;2023-02-11T16:21:49;19.10;;;17.47;;
8584;SDS011;7180;52.742;11.420;2023-02-11T16:24:19;20.13;;;18.37;;
8584;SDS011;7180;52.742;11.420;2023-02-11T16:26:49;18.87;;;17.27;;
8584;SDS011;7180;52.742;11.420;2023-02-11T16:29:21;19.17;;;17.47;;
8584;SDS011;7180;52.742;11.420;2023-02-11T16:31:48;19.07;;;17.30;;
8584;SDS011;7180;52.742;11.420;2023-02-11T16:34:22;20.20;;;18.57;;
8584;SDS011;7180;52.742;11.420;2023-02-11T16:36:48;19.67;;;17.97;;
8584;SDS011;7180;52.742;11.420;2023-02-11T16:39:15;19.73;;;18.03;;
8584;SDS011;7180;52.742;11.420;2023-02-11T16:41:41;20.00;;;18.30;;
8584;SDS011;7180;52.742;11.420;2023-02-11T16:44:06;19.63;;;18.03;;
8584;SDS011;7180;52.742;11.420;2023-02-11T16:46:32;19.13;;;17.50;;
8584;SDS011;7180;52.742;11.420;2023-02-11T16:48:57;19.47;;;17.67;;
8584;SDS011;7180;52.742;11.420;2023-02-11T16:51:37;19.70;;;18.00;;
8584;SDS011;7180;52.742;11.420;2023-02-11T16:54:04;19.20;;;17.50;;
8584;SDS011;7180;52.742;11.420;2023-02-11T16:56:29;19.83;;;18.07;;
8584;SDS011;7180;52.742;11.420;2023-02-11T16:58:55;20.53;;;18.73;;
8584;SDS011;7180;52.742;11.420;2023-02-11T17:01:20;20.70;;;18.97;;
8584;SDS011;7180;52.742;11.420;2023-02-11T17:03:45;20.47;;;18.63;;
8584;SDS011;7180;52.742;11.420;2023-02-11T17:06:11;20.33;;;18.47;;
8584;SDS011;7180;52.742;11.420;2023-02-11T17:08:37;20.00;;;18.13;;
8584;SDS011;7180;52.742;11.420;2023-02-11T17:11:04;20.03;;;18.23;;
8584;SDS011;7180;52.742;11.420;2023-02-11T17:13:29;19.93;;;18.13;;